»·PEaware :: SWA1180 KGEG-KSEA

SWA1180 :: KGEG-KSEA

FLIGHT INFORMATION

Flight Status: Arrived
Operator:
Southwest Airlines
More flights by this operator :: More flights under this callsign
Pilot: Anonymous 10181 (10181)
Aircraft: BOEING 737-700
(B737)
More flights by this aircraft type
Origin: KGEG Spokane Intl
United States
Destination: KSEA Seattle-Tacoma Intl
United States
More flights between these airports :: More routes between these airports
Route: TEMPL GLASR1
File this flight plan on PilotEdge
Remarks: Happy Tuesday!
Altitude:
(Current/Filed)
28,000ft
Speed:
(Current/Filed)
450kts
Departed: 27-Sep-22 09:57 AM
Arrived: 27-Sep-22 10:36 AM
Distance/Time
Traveled:
194nm/0:39
Distance/Time
To Go:
Arrived

Flight Plot

Page will automatically refresh every two minutes.

Flight plan parsing failed; only flown route is shown


Map Options




Map Legend


Flown Route
Filed Route
Departure Airport
Arrival Airport
Navaid (VOR, NDB)
Fix

Horizontal Profiles

Position Reports

Time Latitude Longitude Heading Altitude Ground
Speed
27-Sep-22 09:21 47.624422 -117.535353 315 2361ft 0kts
27-Sep-22 09:22 47.624422 -117.535353 315 2361ft 0kts
27-Sep-22 09:23 47.624422 -117.535353 315 2361ft 0kts
27-Sep-22 09:24 47.624422 -117.535353 315 2361ft 0kts
27-Sep-22 09:25 47.624422 -117.535353 315 2361ft 0kts
27-Sep-22 09:26 47.624422 -117.535353 315 2361ft 0kts
27-Sep-22 09:27 47.624422 -117.535353 315 2361ft 0kts
27-Sep-22 09:28 47.624422 -117.535353 315 2361ft 0kts
27-Sep-22 09:29 47.624422 -117.535353 315 2361ft 0kts
27-Sep-22 09:30 47.624422 -117.535353 315 2361ft 0kts
27-Sep-22 09:31 47.624422 -117.535353 315 2361ft 0kts
27-Sep-22 09:32 47.624422 -117.535353 315 2361ft 0kts
27-Sep-22 09:33 47.624422 -117.535353 315 2361ft 0kts
27-Sep-22 09:34 47.624422 -117.535353 315 2361ft 0kts
27-Sep-22 09:35 47.624422 -117.535353 315 2361ft 0kts
27-Sep-22 09:36 47.624422 -117.535353 315 2361ft 0kts
27-Sep-22 09:37 47.624422 -117.535353 315 2361ft 0kts
27-Sep-22 09:38 47.624422 -117.535353 315 2361ft 0kts
27-Sep-22 09:39 47.624422 -117.535353 315 2361ft 0kts
27-Sep-22 09:40 47.624422 -117.535353 315 2361ft 0kts
27-Sep-22 09:41 47.624422 -117.535353 315 2361ft 0kts
27-Sep-22 09:42 47.624422 -117.535353 315 2361ft 0kts
27-Sep-22 09:43 47.624422 -117.535353 315 2361ft 0kts
27-Sep-22 09:44 47.624378 -117.535287 312 2361ft 2kts
27-Sep-22 09:45 47.624169 -117.534421 242 2360ft 2kts
27-Sep-22 09:46 47.624221 -117.534316 226 2360ft 0kts
27-Sep-22 09:47 47.624221 -117.534316 226 2360ft 0kts
27-Sep-22 09:48 47.624183 -117.534374 226 2360ft 3kts
27-Sep-22 09:49 47.621970 -117.536267 225 2365ft 10kts
27-Sep-22 09:50 47.619844 -117.539481 224 2375ft 15kts
27-Sep-22 09:51 47.616783 -117.544072 225 2380ft 15kts
27-Sep-22 09:52 47.613964 -117.548278 225 2388ft 13kts
27-Sep-22 09:53 47.611697 -117.551633 202 2392ft 2kts
27-Sep-22 09:54 47.610938 -117.551098 136 2396ft 3kts
27-Sep-22 09:55 47.610291 -117.549779 60 2393ft 4kts
27-Sep-22 09:56 47.630333 -117.520452 44 3536ft 194kts
27-Sep-22 09:57 47.680975 -117.450727 44 6775ft 291kts
27-Sep-22 09:58 47.748166 -117.386337 354 10638ft 310kts
27-Sep-22 09:59 47.803277 -117.489125 273 12261ft 368kts
27-Sep-22 10:00 47.797546 -117.643734 264 15321ft 381kts
27-Sep-22 10:01 47.791499 -117.805630 265 17911ft 400kts
27-Sep-22 10:02 47.786363 -117.973345 265 20231ft 411kts
27-Sep-22 10:03 47.780923 -118.145777 265 22376ft 422kts
27-Sep-22 10:04 47.775088 -118.322370 264 24202ft 434kts
27-Sep-22 10:05 47.768816 -118.503526 264 25819ft 443kts
27-Sep-22 10:06 47.762095 -118.688958 264 27253ft 453kts
27-Sep-22 10:07 47.755015 -118.876207 264 28002ft 454kts
27-Sep-22 10:08 47.747666 -119.062465 263 28004ft 452kts
27-Sep-22 10:09 47.739999 -119.248923 263 28006ft 451kts
27-Sep-22 10:10 47.732077 -119.434914 263 28005ft 452kts
27-Sep-22 10:11 47.739895 -119.621911 274 28011ft 456kts
27-Sep-22 10:12 47.755556 -119.808789 273 28009ft 456kts
27-Sep-22 10:13 47.769872 -119.995974 273 28007ft 455kts
27-Sep-22 10:14 47.783944 -120.183159 273 28017ft 456kts
27-Sep-22 10:15 47.797616 -120.370414 273 28018ft 455kts
27-Sep-22 10:16 47.811113 -120.558177 273 28015ft 455kts
27-Sep-22 10:17 47.824159 -120.744102 272 26450ft 447kts
27-Sep-22 10:18 47.836448 -120.924872 272 23321ft 432kts
27-Sep-22 10:19 47.848116 -121.098487 273 20252ft 411kts
27-Sep-22 10:20 47.859059 -121.266087 273 17184ft 402kts
27-Sep-22 10:21 47.869462 -121.429412 272 14218ft 393kts
27-Sep-22 10:22 47.879497 -121.588730 272 12043ft 366kts
27-Sep-22 10:23 47.872297 -121.721408 228 12010ft 295kts
27-Sep-22 10:24 47.817653 -121.797245 219 11985ft 239kts
27-Sep-22 10:25 47.788919 -121.883069 245 11148ft 233kts
27-Sep-22 10:26 47.766873 -121.971247 245 9664ft 227kts
27-Sep-22 10:27 47.744960 -122.058117 245 7969ft 222kts
27-Sep-22 10:28 47.723138 -122.142223 245 7044ft 217kts
27-Sep-22 10:29 47.700674 -122.227214 245 6086ft 218kts
27-Sep-22 10:30 47.667373 -122.294949 205 4917ft 201kts
27-Sep-22 10:31 47.614099 -122.306456 180 3194ft 189kts
27-Sep-22 10:32 47.564201 -122.306860 180 2403ft 176kts
27-Sep-22 10:33 47.516577 -122.307543 180 1667ft 158kts
27-Sep-22 10:34 47.475031 -122.307485 181 703ft 147kts
27-Sep-22 10:35 47.444383 -122.307939 180 387ft 28kts
27-Sep-22 10:36 47.442660 -122.304055 140 385ft 0kts
27-Sep-22 10:37 47.442660 -122.304055 140 385ft 0kts

Navigation Log

Ident Type
Flight plan parsing failed, navigation log unavailable